TimePST,TemperatureF,Dew PointF,Humidity,Sea Level PressureIn,VisibilityMPH,Wind Direction,Wind SpeedMPH,Gust SpeedMPH,PrecipitationIn,Events,Conditions,WindDirDegrees,DateUTC
12:54 AM,57.9,42.1,56,29.87,10.0,ENE,19.6,25.3,N/A,,Scattered Clouds,70,2013-11-22 08:54:00
1:54 AM,59.0,39.0,48,29.86,10.0,ENE,21.9,29.9,N/A,,Scattered Clouds,60,2013-11-22 09:54:00
2:54 AM,59.0,39.9,49,29.86,10.0,ENE,21.9,36.8,N/A,,Overcast,60,2013-11-22 10:54:00
3:54 AM,60.1,39.0,46,29.86,10.0,NE,18.4,32.2,N/A,,Overcast,50,2013-11-22 11:54:00
4:54 AM,59.0,37.9,46,29.86,10.0,NE,19.6,31.1,N/A,,Mostly Cloudy,50,2013-11-22 12:54:00
5:54 AM,59.0,37.0,44,29.88,7.0,NE,21.9,33.4,N/A,,Clear,50,2013-11-22 13:54:00
6:54 AM,57.9,37.9,47,29.90,7.0,ENE,19.6,31.1,N/A,,Scattered Clouds,60,2013-11-22 14:54:00
7:54 AM,59.0,37.9,46,29.91,7.0,ENE,23.0,35.7,N/A,,Mostly Cloudy,60,2013-11-22 15:54:00
8:54 AM,61.0,37.9,42,29.93,7.0,ENE,28.8,38.0,N/A,,Scattered Clouds,60,2013-11-22 16:54:00
9:54 AM,63.0,39.0,41,29.92,7.0,ENE,27.6,39.1,N/A,,Scattered Clouds,60,2013-11-22 17:54:00
10:54 AM,64.0,39.0,40,29.91,7.0,ENE,23.0,38.0,N/A,,Mostly Cloudy,60,2013-11-22 18:54:00
11:54 AM,66.9,39.9,37,29.89,7.0,NE,17.3,33.4,N/A,,Mostly Cloudy,50,2013-11-22 19:54:00
12:54 PM,64.0,39.9,41,29.90,7.0,NE,15.0,33.4,N/A,,Mostly Cloudy,50,2013-11-22 20:54:00
1:54 PM,63.0,39.0,41,29.90,7.0,ENE,20.7,46.0,N/A,,Mostly Cloudy,60,2013-11-22 21:54:00
2:54 PM,62.1,37.9,41,29.89,7.0,ENE,24.2,34.5,N/A,,Mostly Cloudy,60,2013-11-22 22:54:00
3:54 PM,61.0,39.0,44,29.91,7.0,NE,16.1,34.5,N/A,,Mostly Cloudy,50,2013-11-22 23:54:00
4:54 PM,60.1,37.9,44,29.90,7.0,NE,19.6,34.5,N/A,,Mostly Cloudy,50,2013-11-23 00:54:00
5:54 PM,59.0,37.9,46,29.91,7.0,NE,20.7,32.2,N/A,,Scattered Clouds,50,2013-11-23 01:54:00
6:54 PM,59.0,37.9,46,29.93,7.0,NE,19.6,35.7,N/A,,Mostly Cloudy,50,2013-11-23 02:54:00
7:54 PM,59.0,37.9,46,29.94,7.0,ENE,20.7,34.5,N/A,,Mostly Cloudy,60,2013-11-23 03:54:00
8:54 PM,57.0,37.9,49,29.96,7.0,ENE,17.3,34.5,N/A,,Scattered Clouds,60,2013-11-23 04:54:00
9:54 PM,57.9,39.0,49,29.97,7.0,ENE,18.4,31.1,N/A,,Scattered Clouds,60,2013-11-23 05:54:00
10:12 PM,57.0,39.9,53,29.97,7.0,ENE,20.7,33.4,0.00,Rain,Light Rain,60,2013-11-23 06:12:00
10:37 PM,57.9,37.9,47,29.97,7.0,NE,19.6,28.8,0.00,,Mostly Cloudy,50,2013-11-23 06:37:00
10:54 PM,57.9,37.9,47,29.97,7.0,NE,15.0,28.8,0.00,,Mostly Cloudy,50,2013-11-23 06:54:00
11:54 PM,57.9,37.9,47,29.97,10.0,ENE,17.3,28.8,N/A,,Overcast,60,2013-11-23 07:54:00